createdAt,value
2022-07-28T00:00:42.167Z,101439.22
2022-07-28T00:03:08.669Z,101434.78
2022-07-28T00:05:35.612Z,101439.94
2022-07-28T00:08:02.241Z,101435.75
2022-07-28T00:10:28.740Z,101432.16
2022-07-28T00:12:55.218Z,101437.16
2022-07-28T00:15:21.808Z,101425.09
2022-07-28T00:17:48.368Z,101426.31
2022-07-28T00:20:14.903Z,101426.19
2022-07-28T00:22:45.481Z,101425.78
2022-07-28T00:25:12.054Z,101428.16
2022-07-28T00:27:38.602Z,101424.94
2022-07-28T00:30:08.916Z,101424.13
2022-07-28T00:32:35.495Z,101425.91
2022-07-28T00:35:02.333Z,101418.28
2022-07-28T00:37:29.221Z,101386.78
2022-07-28T00:39:56.155Z,101370.81
2022-07-28T00:42:23.138Z,101401.19
2022-07-28T00:44:49.636Z,101406.06
2022-07-28T00:47:16.269Z,101407.03
2022-07-28T00:49:45.111Z,101408.56
2022-07-28T00:52:12.180Z,101404.16
2022-07-28T00:54:39.307Z,101401.38
2022-07-28T00:57:05.808Z,101400.28
2022-07-28T00:59:33.872Z,101387.63
2022-07-28T01:02:01.505Z,101396.50
2022-07-28T01:04:28.997Z,101401.59
2022-07-28T01:07:06.518Z,101396.22
2022-07-28T01:10:02.492Z,101398.00
2022-07-28T01:12:49.983Z,101398.53
2022-07-28T01:15:29.732Z,101393.28
2022-07-28T01:18:14.866Z,101399.94
2022-07-28T01:21:12.333Z,101399.66
2022-07-28T01:23:41.821Z,101403.00
2022-07-28T01:26:17.560Z,101402.72
2022-07-28T01:29:09.730Z,101393.88
2022-07-28T01:32:01.457Z,101394.28
2022-07-28T01:34:33.208Z,101393.19
2022-07-28T01:37:06.936Z,101397.34
2022-07-28T01:39:36.141Z,101387.06
2022-07-28T01:42:06.160Z,101383.34
2022-07-28T01:44:35.598Z,101386.94
2022-07-28T01:47:07.437Z,101381.69
2022-07-28T01:49:36.199Z,101375.84
2022-07-28T01:52:06.929Z,101381.25
2022-07-28T01:54:37.433Z,101379.72
2022-07-28T01:57:05.531Z,101379.41
2022-07-28T01:59:37.042Z,101370.63
2022-07-28T02:02:05.439Z,101364.53
2022-07-28T02:04:35.157Z,101347.72
2022-07-28T02:07:04.243Z,101371.59
2022-07-28T02:09:31.908Z,101367.03
2022-07-28T02:12:00.221Z,101367.97
2022-07-28T02:14:28.573Z,101372.31
2022-07-28T02:17:07.821Z,101361.06
2022-07-28T02:19:35.529Z,101356.75
2022-07-28T02:22:03.987Z,101363.56
2022-07-28T02:24:33.592Z,101353.03
2022-07-28T02:27:13.903Z,101367.03
2022-07-28T02:29:51.009Z,101362.16
2022-07-28T02:32:32.752Z,101355.78
2022-07-28T02:35:09.494Z,101350.75
2022-07-28T02:37:45.329Z,101351.44
2022-07-28T02:40:19.544Z,101344.13
2022-07-28T02:42:48.737Z,101341.59
2022-07-28T02:45:18.319Z,101340.47
2022-07-28T02:47:51.551Z,101343.38
2022-07-28T02:50:21.718Z,101338.50
2022-07-28T02:52:49.827Z,101319.84
2022-07-28T02:55:17.598Z,101340.81
2022-07-28T02:57:46.274Z,101334.25
2022-07-28T03:00:13.318Z,101335.38
2022-07-28T03:02:41.298Z,101336.19
2022-07-28T03:05:11.424Z,101338.00
2022-07-28T03:07:48.243Z,101335.31
2022-07-28T03:10:33.879Z,101328.91
2022-07-28T03:13:02.712Z,101336.91
2022-07-28T03:15:29.272Z,101329.03
2022-07-28T03:17:55.732Z,101286.72
2022-07-28T03:20:22.230Z,101347.25
2022-07-28T03:22:48.726Z,101337.34
2022-07-28T03:25:28.232Z,101339.66
2022-07-28T03:27:58.112Z,101341.25
2022-07-28T03:30:35.129Z,101346.16
2022-07-28T03:33:03.453Z,101321.31
2022-07-28T03:35:33.298Z,101349.19
2022-07-28T03:38:14.103Z,101341.94
2022-07-28T03:40:46.109Z,101353.25
2022-07-28T03:43:16.566Z,101349.13
2022-07-28T03:45:46.729Z,101317.75
2022-07-28T03:48:13.705Z,101362.69
2022-07-28T03:50:40.231Z,101363.88
2022-07-28T03:53:19.711Z,101354.13
2022-07-28T03:55:50.617Z,101354.50
2022-07-28T03:58:18.757Z,101347.59
2022-07-28T04:00:45.249Z,101352.25
2022-07-28T04:03:22.668Z,101345.44
2022-07-28T04:05:58.279Z,101340.34
2022-07-28T04:08:24.838Z,101345.81
2022-07-28T04:10:51.482Z,101338.91
2022-07-28T04:13:18.296Z,101339.16
2022-07-28T04:15:44.763Z,101346.19
2022-07-28T04:18:11.791Z,101354.06
2022-07-28T04:20:38.299Z,101339.03
2022-07-28T04:23:04.786Z,101341.66
2022-07-28T04:25:31.380Z,101345.81
2022-07-28T04:27:57.958Z,101337.94
2022-07-28T04:30:25.350Z,101338.09
2022-07-28T04:32:53.761Z,101330.22
2022-07-28T04:35:20.725Z,101334.13
2022-07-28T04:37:48.617Z,101343.56
2022-07-28T04:40:15.559Z,101346.78
2022-07-28T04:42:43.148Z,101335.31
2022-07-28T04:45:13.769Z,101325.03
2022-07-28T04:47:40.528Z,101317.41
2022-07-28T04:50:08.992Z,101341.47
2022-07-28T04:52:35.969Z,101337.38
2022-07-28T04:55:02.890Z,101339.38
2022-07-28T04:57:29.970Z,101332.81
2022-07-28T05:00:00.668Z,101332.88
2022-07-28T05:02:27.760Z,101332.25
2022-07-28T05:04:54.590Z,101343.50
2022-07-28T05:07:21.251Z,101339.53
2022-07-28T05:09:47.699Z,101344.47
2022-07-28T05:12:14.151Z,101343.44
2022-07-28T05:14:40.695Z,101336.28
2022-07-28T05:17:07.230Z,101340.25
2022-07-28T05:19:36.365Z,101338.56
2022-07-28T05:22:03.053Z,101335.69
2022-07-28T05:24:29.526Z,101341.44
2022-07-28T05:26:59.336Z,101340.34
2022-07-28T05:29:25.909Z,101334.94
2022-07-28T05:32:16.110Z,101332.00
2022-07-28T05:34:46.077Z,101337.44
2022-07-28T05:37:12.608Z,101333.91
2022-07-28T05:39:39.347Z,101332.09
2022-07-28T05:42:06.233Z,101340.94
2022-07-28T05:44:37.859Z,101337.06
2022-07-28T05:47:05.453Z,101339.38
2022-07-28T05:49:31.932Z,101340.91
2022-07-28T05:51:58.470Z,101329.03
2022-07-28T05:54:25.078Z,101341.03
2022-07-28T05:56:52.607Z,101337.06
2022-07-28T05:59:19.148Z,101341.19
2022-07-28T06:01:46.098Z,101344.13
2022-07-28T06:04:29.054Z,101340.63
2022-07-28T06:06:56.029Z,101333.25
2022-07-28T06:09:22.546Z,101334.44
2022-07-28T06:11:50.483Z,101334.31
2022-07-28T06:14:17.819Z,101321.78
2022-07-28T06:16:44.984Z,101341.47
2022-07-28T06:19:11.546Z,101335.06
2022-07-28T06:21:38.190Z,101342.47
2022-07-28T06:24:05.178Z,101340.66
2022-07-28T06:26:31.651Z,101341.78
2022-07-28T06:28:58.119Z,101336.72
2022-07-28T06:31:24.763Z,101341.81
2022-07-28T06:33:51.287Z,101332.72
2022-07-28T06:36:17.867Z,101338.81
2022-07-28T06:38:44.425Z,101338.41
2022-07-28T06:41:10.898Z,101346.53
2022-07-28T06:43:39.191Z,101336.03
2022-07-28T06:46:06.272Z,101337.00
2022-07-28T06:48:32.977Z,101340.25
2022-07-28T06:50:59.775Z,101348.31
2022-07-28T06:53:27.924Z,101342.50
2022-07-28T06:55:54.673Z,101335.59
2022-07-28T06:58:21.196Z,101339.59
2022-07-28T07:00:47.752Z,101341.91
2022-07-28T07:03:14.422Z,101348.88
2022-07-28T07:05:41.038Z,101337.03
2022-07-28T07:08:07.584Z,101339.75
2022-07-28T07:10:35.004Z,101331.16
2022-07-28T07:13:01.593Z,101337.53
2022-07-28T07:15:28.151Z,101331.47
2022-07-28T07:17:54.626Z,101332.72
2022-07-28T07:20:21.309Z,101339.38
2022-07-28T07:22:48.365Z,101328.00
2022-07-28T07:25:17.148Z,101326.94
2022-07-28T07:27:44.434Z,101325.56
2022-07-28T07:30:11.493Z,101316.72
2022-07-28T07:32:38.788Z,101321.66
2022-07-28T07:35:06.491Z,101333.88
2022-07-28T07:37:33.178Z,101323.75
2022-07-28T07:40:00.509Z,101333.69
2022-07-28T07:42:27.835Z,101331.19
2022-07-28T07:44:54.752Z,101322.84
2022-07-28T07:47:21.291Z,101332.75
2022-07-28T07:49:47.788Z,101333.09
2022-07-28T07:52:14.547Z,101309.28
2022-07-28T07:54:41.803Z,101330.03
2022-07-28T07:57:08.341Z,101322.25
2022-07-28T07:59:35.255Z,101316.38
2022-07-28T08:02:02.070Z,101313.13
2022-07-28T08:04:29.043Z,101314.63
2022-07-28T08:06:56.154Z,101301.91
2022-07-28T08:09:23.556Z,101310.94
2022-07-28T08:11:50.153Z,101319.34
2022-07-28T08:14:17.588Z,101304.88
2022-07-28T08:16:44.714Z,101303.47
2022-07-28T08:19:11.656Z,101298.13
2022-07-28T08:21:38.435Z,101289.59
2022-07-28T08:24:05.349Z,101293.91
2022-07-28T08:26:31.868Z,101277.84
2022-07-28T08:28:58.369Z,101295.25
2022-07-28T08:31:24.923Z,101282.97
2022-07-28T08:33:53.762Z,101284.72
2022-07-28T08:36:21.211Z,101283.41
2022-07-28T08:38:47.853Z,101282.19
2022-07-28T08:41:20.565Z,101278.69
2022-07-28T08:43:49.848Z,101272.81
2022-07-28T08:46:18.889Z,101274.69
2022-07-28T08:48:46.209Z,101262.09
2022-07-28T08:51:13.358Z,101242.50
2022-07-28T08:53:40.885Z,101271.97
2022-07-28T08:56:14.178Z,101233.19
2022-07-28T08:58:40.745Z,101282.44
2022-07-28T09:01:11.200Z,101278.03
2022-07-28T09:03:39.132Z,101290.69
2022-07-28T09:06:05.914Z,101288.63
2022-07-28T09:08:32.466Z,101280.25
2022-07-28T09:10:59.057Z,101281.47
2022-07-28T09:13:25.691Z,101262.50
2022-07-28T09:15:52.546Z,101273.44
2022-07-28T09:18:19.309Z,101273.31
2022-07-28T09:20:46.019Z,101273.09
2022-07-28T09:23:33.546Z,101262.88
2022-07-28T09:26:11.786Z,101263.75
2022-07-28T09:28:58.289Z,101276.28
2022-07-28T09:31:27.778Z,101269.84
2022-07-28T09:34:03.081Z,101264.53
2022-07-28T09:36:38.011Z,101266.72
2022-07-28T09:39:05.396Z,101251.53
2022-07-28T09:41:49.006Z,101248.66
2022-07-28T09:44:23.345Z,101241.09
2022-07-28T09:46:51.021Z,101234.69
2022-07-28T09:49:17.983Z,101240.06
2022-07-28T09:52:00.968Z,101249.19
2022-07-28T09:54:27.737Z,101209.91
2022-07-28T09:56:54.520Z,101243.38
2022-07-28T09:59:23.775Z,101240.47
2022-07-28T10:02:01.781Z,101244.88
2022-07-28T10:04:36.386Z,101241.44
2022-07-28T10:09:41.850Z,101236.50
2022-07-28T10:12:22.880Z,101237.66
2022-07-28T10:14:52.065Z,101237.97
2022-07-28T10:17:34.518Z,101226.69
2022-07-28T10:20:01.938Z,101212.63
2022-07-28T10:22:33.125Z,101212.22
2022-07-28T10:25:02.449Z,101221.13
2022-07-28T10:27:29.580Z,101211.91
2022-07-28T10:30:00.353Z,101207.75
2022-07-28T10:32:29.645Z,101208.72
2022-07-28T10:35:02.916Z,101216.38
2022-07-28T10:37:31.744Z,101206.84
2022-07-28T10:40:07.789Z,101203.44
2022-07-28T10:42:36.976Z,101198.97
2022-07-28T10:45:04.781Z,101200.88
2022-07-28T10:47:32.488Z,101203.03
2022-07-28T10:50:03.955Z,101195.16
2022-07-28T10:52:50.165Z,101189.31
2022-07-28T10:55:44.534Z,101194.44
2022-07-28T10:58:25.011Z,101199.47
2022-07-28T11:00:56.675Z,101188.09
2022-07-28T11:03:43.813Z,101194.94
2022-07-28T11:06:49.056Z,101194.38
2022-07-28T11:09:15.486Z,101188.59
2022-07-28T11:11:47.218Z,101194.78
2022-07-28T11:14:37.753Z,101189.22
2022-07-28T11:17:05.744Z,101194.94
2022-07-28T11:20:06.909Z,101187.78
2022-07-28T11:22:32.019Z,101176.81
2022-07-28T11:25:19.296Z,101180.97
2022-07-28T11:27:50.895Z,101183.28
2022-07-28T11:30:35.936Z,101190.44
2022-07-28T11:33:09.204Z,101182.78
2022-07-28T11:35:38.530Z,101178.41
2022-07-28T11:38:04.988Z,101175.56
2022-07-28T11:40:33.284Z,101175.88
2022-07-28T11:43:22.064Z,101165.75
2022-07-28T11:46:11.842Z,101169.34
2022-07-28T11:48:41.602Z,101159.03
2022-07-28T11:51:09.268Z,101148.16
2022-07-28T11:53:39.725Z,101153.31
2022-07-28T11:56:09.761Z,101163.00
2022-07-28T11:58:37.055Z,101155.94
2022-07-28T12:01:19.357Z,101152.34
2022-07-28T12:03:55.784Z,101160.59
2022-07-28T12:06:35.501Z,101143.66
2022-07-28T12:09:05.046Z,101149.59
2022-07-28T12:11:37.393Z,101143.03
2022-07-28T12:14:07.672Z,101140.50
2022-07-28T12:16:36.915Z,101134.53
2022-07-28T12:19:05.292Z,101135.69
2022-07-28T12:21:46.126Z,101131.53
2022-07-28T12:24:16.234Z,101127.03
2022-07-28T12:26:48.468Z,101127.41
2022-07-28T12:29:16.323Z,101128.00
2022-07-28T12:32:04.746Z,101137.78
2022-07-28T12:34:34.921Z,101124.16
2022-07-28T12:37:04.596Z,101125.81
2022-07-28T12:39:34.355Z,101126.13
2022-07-28T12:42:10.165Z,101115.78
2022-07-28T12:44:41.758Z,101117.97
2022-07-28T12:47:12.124Z,101109.16
2022-07-28T12:49:40.746Z,101109.66
2022-07-28T12:52:24.927Z,101111.97
2022-07-28T12:54:54.934Z,101105.94
2022-07-28T12:57:48.835Z,101108.91
2022-07-28T13:00:19.913Z,101097.53
2022-07-28T13:02:47.764Z,101105.41
2022-07-28T13:05:32.174Z,101108.25
2022-07-28T13:08:04.995Z,101095.13
2022-07-28T13:10:32.436Z,101091.25
2022-07-28T13:13:07.514Z,101090.94
2022-07-28T13:15:34.556Z,101099.69
2022-07-28T13:18:01.187Z,101091.50
2022-07-28T13:20:27.779Z,101093.03
2022-07-28T13:22:54.638Z,101096.31
2022-07-28T13:25:21.699Z,101077.28
2022-07-28T13:27:54.220Z,101093.34
2022-07-28T13:30:22.513Z,101083.66
2022-07-28T13:32:49.397Z,101092.72
2022-07-28T13:35:16.058Z,101062.66
2022-07-28T13:37:46.077Z,101084.16
2022-07-28T13:40:12.993Z,101088.66
2022-07-28T13:42:39.579Z,101085.75
2022-07-28T13:45:06.523Z,101086.75
2022-07-28T13:47:38.787Z,101085.34
2022-07-28T13:50:07.295Z,101073.38
2022-07-28T13:52:37.291Z,101077.25
2022-07-28T13:55:06.072Z,101070.91
2022-07-28T13:57:36.386Z,101067.66
2022-07-28T14:00:07.652Z,101053.75
2022-07-28T14:02:34.989Z,101060.50
2022-07-28T14:05:01.676Z,101069.19
2022-07-28T14:07:28.343Z,101072.31
2022-07-28T14:09:55.167Z,101069.94
2022-07-28T14:12:21.784Z,101050.72
2022-07-28T14:14:49.012Z,101066.47
2022-07-28T14:17:42.872Z,101057.84
2022-07-28T14:20:04.574Z,101055.22
2022-07-28T14:22:31.094Z,101046.88
2022-07-28T14:24:57.560Z,101049.53
2022-07-28T14:27:28.982Z,101059.06
2022-07-28T14:29:55.842Z,101052.81
2022-07-28T14:32:23.081Z,101064.09
2022-07-28T14:34:49.632Z,101059.09
2022-07-28T14:37:17.118Z,101063.66
2022-07-28T14:39:43.730Z,101062.69
2022-07-28T14:42:10.497Z,101054.53
2022-07-28T14:44:37.484Z,101055.00
2022-07-28T14:47:04.335Z,101032.72
2022-07-28T14:49:31.871Z,101047.69
2022-07-28T14:51:59.393Z,101055.13
2022-07-28T14:54:27.707Z,101050.69
2022-07-28T14:56:54.805Z,101061.47
2022-07-28T14:59:21.347Z,101047.81
2022-07-28T15:01:48.930Z,101052.69
2022-07-28T15:04:16.472Z,101052.66
2022-07-28T15:06:43.434Z,101042.50
2022-07-28T15:09:10.421Z,101044.38
2022-07-28T15:11:37.534Z,101039.56
2022-07-28T15:14:04.528Z,101041.75
2022-07-28T15:16:31.269Z,101043.66
2022-07-28T15:18:58.268Z,101035.97
2022-07-28T15:21:24.950Z,101040.47
2022-07-28T15:23:51.461Z,101039.09
2022-07-28T15:26:17.957Z,101044.19
2022-07-28T15:28:45.936Z,101037.06
2022-07-28T15:31:12.546Z,101042.31
2022-07-28T15:33:47.616Z,101039.81
2022-07-28T15:36:15.495Z,101042.81
2022-07-28T15:38:42.078Z,101039.38
2022-07-28T15:41:15.146Z,101043.28
2022-07-28T15:43:42.045Z,101041.97
2022-07-28T15:46:11.196Z,101036.44
2022-07-28T15:48:41.046Z,101035.78
2022-07-28T15:51:08.501Z,101022.97
2022-07-28T15:53:35.757Z,101032.13
2022-07-28T15:56:04.085Z,101030.84
2022-07-28T15:58:30.891Z,101025.63
2022-07-28T16:00:57.406Z,101032.63
2022-07-28T16:03:28.380Z,101027.06
2022-07-28T16:05:54.943Z,101029.06
2022-07-28T16:08:23.206Z,101018.91
2022-07-28T16:10:52.344Z,101023.22
2022-07-28T16:13:28.572Z,101021.50
2022-07-28T16:16:04.937Z,101012.13
2022-07-28T16:18:32.007Z,101013.06
2022-07-28T16:20:58.535Z,101011.38
2022-07-28T16:23:25.044Z,101012.50
2022-07-28T16:25:51.594Z,101013.75
2022-07-28T16:28:18.129Z,101017.75
2022-07-28T16:30:44.799Z,101015.88
2022-07-28T16:33:11.388Z,101019.53
2022-07-28T16:35:37.934Z,101013.19
2022-07-28T16:38:05.716Z,101010.13
2022-07-28T16:40:32.850Z,101005.03
2022-07-28T16:43:03.783Z,101015.97
2022-07-28T16:45:31.256Z,101012.31
2022-07-28T16:47:58.908Z,101015.97
2022-07-28T16:50:25.904Z,101020.91
2022-07-28T16:52:55.555Z,101010.19
2022-07-28T16:55:24.028Z,101011.44
2022-07-28T16:57:52.097Z,100999.53
2022-07-28T17:00:19.412Z,101012.91
2022-07-28T17:02:46.014Z,101006.22
2022-07-28T17:05:13.777Z,101014.66
2022-07-28T17:07:45.809Z,101016.09
2022-07-28T17:10:14.704Z,101016.91
2022-07-28T17:12:41.759Z,101019.41
2022-07-28T17:15:20.030Z,101019.41
2022-07-28T17:17:52.743Z,101011.00
2022-07-28T17:20:20.115Z,101024.16
2022-07-28T17:22:47.253Z,101003.00
2022-07-28T17:25:50.243Z,101027.44
2022-07-28T17:28:00.552Z,101028.06
2022-07-28T17:30:29.740Z,101022.31
2022-07-28T17:32:58.100Z,101010.00
2022-07-28T17:35:34.207Z,101020.91
2022-07-28T17:38:02.959Z,101024.16
2022-07-28T17:40:29.535Z,101017.59
2022-07-28T17:42:56.152Z,101025.41
2022-07-28T17:45:24.080Z,101021.94
2022-07-28T17:47:50.916Z,101007.34
2022-07-28T17:50:17.546Z,100972.16
2022-07-28T17:52:45.395Z,101013.28
2022-07-28T17:55:35.677Z,101012.88
2022-07-28T17:58:28.787Z,101008.97
2022-07-28T18:01:10.399Z,101007.94
2022-07-28T18:03:58.164Z,101013.88
2022-07-28T18:06:33.401Z,101009.78
2022-07-28T18:09:05.476Z,100998.25
2022-07-28T18:11:58.256Z,101009.59
2022-07-28T18:14:29.725Z,101014.25
2022-07-28T18:16:56.870Z,101020.63
2022-07-28T18:19:23.577Z,101022.94
2022-07-28T18:21:50.199Z,101021.47
2022-07-28T18:24:17.953Z,100990.22
2022-07-28T18:26:44.808Z,101019.59
2022-07-28T18:29:11.296Z,101009.53
2022-07-28T18:31:42.545Z,101017.34
2022-07-28T18:34:10.505Z,101014.88
2022-07-28T18:36:37.000Z,101019.16
2022-07-28T18:39:03.723Z,101029.03
2022-07-28T18:41:34.510Z,101015.69
2022-07-28T18:44:12.906Z,101011.34
2022-07-28T18:46:39.694Z,101023.06
2022-07-28T18:49:06.321Z,101026.34
2022-07-28T18:51:32.887Z,101027.16
2022-07-28T18:53:59.353Z,101014.44
2022-07-28T18:56:25.826Z,101026.09
2022-07-28T18:58:54.179Z,101023.66
2022-07-28T19:01:20.730Z,101018.91
2022-07-28T19:03:47.340Z,101026.50
2022-07-28T19:06:13.877Z,101022.78
2022-07-28T19:08:40.637Z,101027.69
2022-07-28T19:11:07.180Z,101022.94
2022-07-28T19:13:33.657Z,101016.34
2022-07-28T19:16:00.177Z,101028.78
2022-07-28T19:18:26.789Z,101022.66
2022-07-28T19:20:53.342Z,101019.91
2022-07-28T19:23:19.839Z,101029.94
2022-07-28T19:25:46.363Z,101041.00
2022-07-28T19:28:12.966Z,101039.75
2022-07-28T19:30:39.579Z,101038.50
2022-07-28T19:33:06.814Z,101043.41
2022-07-28T19:35:33.754Z,101050.97
2022-07-28T19:38:02.571Z,101047.38
2022-07-28T19:40:32.225Z,101054.53
2022-07-28T19:42:59.507Z,101054.94
2022-07-28T19:45:26.425Z,101057.34
2022-07-28T19:47:54.525Z,101058.75
2022-07-28T19:50:21.062Z,101070.44
2022-07-28T19:52:47.559Z,101066.13
2022-07-28T19:55:17.843Z,101071.19
2022-07-28T19:57:45.480Z,101042.78
2022-07-28T20:00:12.869Z,101069.09
2022-07-28T20:02:39.684Z,101070.75
2022-07-28T20:05:07.473Z,101074.63
2022-07-28T20:07:34.078Z,101043.59
2022-07-28T20:10:01.061Z,101077.50
2022-07-28T20:12:32.786Z,101068.41
2022-07-28T20:15:02.526Z,101078.22
2022-07-28T20:17:38.046Z,101078.59
2022-07-28T20:20:08.768Z,101072.81
2022-07-28T20:22:35.805Z,101075.88
2022-07-28T20:25:05.067Z,101075.25
2022-07-28T20:27:40.655Z,101082.56
2022-07-28T20:30:09.654Z,101087.44
2022-07-28T20:32:37.544Z,101090.22
2022-07-28T20:35:05.125Z,101087.94
2022-07-28T20:37:36.825Z,101091.78
2022-07-28T20:40:05.974Z,101098.13
2022-07-28T20:42:32.470Z,101106.50
2022-07-28T20:44:59.003Z,101100.28
2022-07-28T20:47:26.071Z,101099.63
2022-07-28T20:49:53.432Z,101097.53
2022-07-28T20:52:19.945Z,101094.25
2022-07-28T20:54:50.619Z,101096.41
2022-07-28T20:57:20.383Z,101095.56
2022-07-28T20:59:48.877Z,101089.81
2022-07-28T21:02:15.386Z,101069.91
2022-07-28T21:04:41.884Z,101100.53
2022-07-28T21:07:10.170Z,101096.41
2022-07-28T21:09:36.718Z,101103.75
2022-07-28T21:12:03.562Z,101095.31
2022-07-28T21:14:32.208Z,101097.34
2022-07-28T21:17:01.834Z,101092.75
2022-07-28T21:19:28.496Z,101089.63
2022-07-28T21:21:55.067Z,101081.56
2022-07-28T21:24:21.636Z,101089.53
2022-07-28T21:26:49.598Z,101089.91
2022-07-28T21:32:05.227Z,101077.91
2022-07-28T21:34:34.306Z,101083.13
2022-07-28T21:37:02.496Z,101084.47
2022-07-28T21:39:29.057Z,101089.00
2022-07-28T21:41:55.577Z,101082.38
2022-07-28T21:44:22.180Z,101081.91
2022-07-28T21:46:48.778Z,101089.69
2022-07-28T21:49:15.315Z,101096.03
2022-07-28T21:51:42.210Z,101090.88
2022-07-28T21:54:08.792Z,101074.91
2022-07-28T21:56:35.367Z,101096.56
2022-07-28T21:59:02.643Z,101106.56
2022-07-28T22:01:29.573Z,101095.47
2022-07-28T22:03:56.335Z,101089.66
2022-07-28T22:06:22.962Z,101106.22
2022-07-28T22:08:53.375Z,101090.81
2022-07-28T22:11:21.733Z,101102.47
2022-07-28T22:13:48.315Z,101109.78
2022-07-28T22:16:15.300Z,101105.81
2022-07-28T22:18:41.883Z,101103.38
2022-07-28T22:21:08.399Z,101096.75
2022-07-28T22:23:34.930Z,101097.28
2022-07-28T22:26:01.550Z,101064.28
2022-07-28T22:28:29.730Z,101091.03
2022-07-28T22:30:57.427Z,101093.03
2022-07-28T22:33:23.963Z,101082.59
2022-07-28T22:35:51.410Z,101086.63
2022-07-28T22:38:18.158Z,101091.09
2022-07-28T22:40:44.960Z,101084.97
2022-07-28T22:43:11.477Z,101090.28
2022-07-28T22:45:49.701Z,101099.88
2022-07-28T22:48:18.270Z,101107.69
2022-07-28T22:50:44.933Z,101108.97
2022-07-28T22:53:11.484Z,101073.31
2022-07-28T22:55:37.977Z,101102.38
2022-07-28T22:58:05.753Z,101095.94
2022-07-28T23:00:33.633Z,101095.00
2022-07-28T23:03:00.282Z,101086.63
2022-07-28T23:05:28.644Z,101082.16
2022-07-28T23:07:57.379Z,101081.25
2022-07-28T23:10:24.308Z,101080.28
2022-07-28T23:12:50.776Z,101077.97
2022-07-28T23:15:17.309Z,101080.94
2022-07-28T23:17:43.841Z,101072.50
2022-07-28T23:20:11.019Z,101081.81
2022-07-28T23:22:38.035Z,101076.72
2022-07-28T23:25:05.105Z,101070.41
2022-07-28T23:27:31.638Z,101075.59
2022-07-28T23:29:58.254Z,101048.84
2022-07-28T23:32:24.741Z,101072.97
2022-07-28T23:34:51.378Z,101073.16
2022-07-28T23:37:17.883Z,101076.19
2022-07-28T23:39:44.389Z,101072.75
2022-07-28T23:42:10.929Z,101070.56
2022-07-28T23:44:38.082Z,101063.31
2022-07-28T23:47:04.760Z,101064.97
2022-07-28T23:49:31.410Z,101010.91
2022-07-28T23:51:57.910Z,101071.59
2022-07-28T23:54:24.457Z,101066.66
2022-07-28T23:56:52.633Z,101067.50
2022-07-28T23:59:19.146Z,101069.94
